Terminal Aerodrome Forecast
Issued by NWS

Home | Current Version | Previous Version | Text Only | Print | Product List | Glossary On
Versions: 1 2 3 4 5 6 7 8 9 10 11 12 13
239
FTUS44 KLIX 282349
TAFGPT
TAF
KGPT 282349Z 2900/2924 17008G14KT P6SM SCT040 BKN090
     FM290300 15009KT P6SM FEW040 OVC090
      TEMPO 2903/2905 4SM -SHRA BKN040
     FM290500 14009KT P6SM -SHRA VCTS SCT035CB OVC080
      TEMPO 2905/2909 4SM SHRA OVC040
     FM290900 14008KT 4SM SHRA VCTS OVC025CB
     FM291900 15008KT 3SM SHRA VCTS OVC015CB
     FM292300 16008KT P6SM -SHRA VCTS BKN035CB=

USA.gov is the U.S. government's official web portal to all federal, state and local government web resources and services.